createdAt,value
2022-07-26T00:00:19.975Z,62.81
2022-07-26T00:03:04.920Z,62.54
2022-07-26T00:05:50.125Z,61.77
2022-07-26T00:08:35.537Z,61.99
2022-07-26T00:11:21.635Z,61.91
2022-07-26T00:14:08.648Z,61.47
2022-07-26T00:16:54.065Z,61.50
2022-07-26T00:19:39.292Z,61.00
2022-07-26T00:22:36.546Z,60.74
2022-07-26T00:25:23.371Z,60.92
2022-07-26T00:28:08.778Z,61.32
2022-07-26T00:30:54.926Z,61.77
2022-07-26T00:33:40.822Z,61.85
2022-07-26T00:36:27.527Z,61.97
2022-07-26T00:39:12.701Z,62.35
2022-07-26T00:41:57.910Z,61.76
2022-07-26T00:44:45.584Z,61.79
2022-07-26T00:47:30.665Z,61.75
2022-07-26T00:50:18.032Z,61.49
2022-07-26T00:53:03.552Z,61.57
2022-07-26T00:55:53.027Z,61.42
2022-07-26T00:58:37.985Z,61.02
2022-07-26T01:01:23.277Z,61.38
2022-07-26T01:04:09.112Z,61.45
2022-07-26T01:06:54.966Z,61.47
2022-07-26T01:09:40.388Z,61.91
2022-07-26T01:12:25.718Z,62.38
2022-07-26T01:15:13.249Z,62.08
2022-07-26T01:17:58.431Z,62.47
2022-07-26T01:20:44.751Z,63.10
2022-07-26T01:23:31.220Z,62.83
2022-07-26T01:26:17.147Z,62.76
2022-07-26T01:29:04.708Z,63.38
2022-07-26T01:31:50.379Z,63.61
2022-07-26T01:34:35.870Z,63.65
2022-07-26T01:37:21.037Z,64.32
2022-07-26T01:40:07.138Z,64.93
2022-07-26T01:42:52.333Z,64.90
2022-07-26T01:45:37.769Z,64.67
2022-07-26T01:48:23.277Z,65.03
2022-07-26T01:51:08.415Z,64.84
2022-07-26T01:53:53.844Z,65.02
2022-07-26T01:56:39.412Z,65.59
2022-07-26T01:59:24.592Z,65.46
2022-07-26T02:02:10.115Z,65.47
2022-07-26T02:05:01.855Z,65.81
2022-07-26T02:07:46.763Z,65.90
2022-07-26T02:10:50.378Z,66.46
2022-07-26T02:13:41.247Z,66.74
2022-07-26T02:16:26.819Z,66.92
2022-07-26T02:19:11.909Z,66.94
2022-07-26T02:21:57.476Z,66.94
2022-07-26T02:24:42.258Z,67.65
2022-07-26T02:27:27.360Z,67.88
2022-07-26T02:30:12.736Z,68.38
2022-07-26T02:32:57.757Z,68.61
2022-07-26T02:35:44.130Z,68.82
2022-07-26T02:38:29.029Z,68.80
2022-07-26T02:41:14.273Z,69.23
2022-07-26T02:43:59.545Z,69.38
2022-07-26T02:46:44.725Z,69.55
2022-07-26T02:49:30.033Z,69.96
2022-07-26T02:52:15.208Z,69.94
2022-07-26T02:55:00.413Z,70.45
2022-07-26T02:57:46.853Z,70.60
2022-07-26T03:00:31.959Z,70.76
2022-07-26T03:03:17.178Z,70.89
2022-07-26T03:06:02.466Z,70.98
2022-07-26T03:08:48.900Z,71.61
2022-07-26T03:11:34.101Z,71.65
2022-07-26T03:14:19.376Z,71.85
2022-07-26T03:17:04.627Z,71.72
2022-07-26T03:19:57.246Z,72.06
2022-07-26T03:22:42.596Z,71.83
2022-07-26T03:25:27.541Z,72.29
2022-07-26T03:28:18.963Z,72.40
2022-07-26T03:31:04.504Z,72.23
2022-07-26T03:33:49.761Z,72.51
2022-07-26T03:36:35.411Z,72.61
2022-07-26T03:39:20.557Z,72.77
2022-07-26T03:42:06.184Z,73.39
2022-07-26T03:44:51.125Z,73.56
2022-07-26T03:47:37.257Z,73.90
2022-07-26T03:50:22.251Z,72.98
2022-07-26T03:53:07.762Z,73.36
2022-07-26T03:56:11.515Z,73.46
2022-07-26T03:58:59.072Z,73.82
2022-07-26T04:01:45.683Z,73.76
2022-07-26T04:04:31.217Z,73.92
2022-07-26T04:07:16.810Z,74.01
2022-07-26T04:10:02.650Z,74.31
2022-07-26T04:12:48.750Z,74.16
2022-07-26T04:15:33.914Z,74.19
2022-07-26T04:18:19.866Z,74.30
2022-07-26T04:21:05.086Z,74.87
2022-07-26T04:23:51.526Z,75.20
2022-07-26T04:26:37.172Z,75.39
2022-07-26T04:29:22.341Z,75.13
2022-07-26T04:32:07.615Z,75.48
2022-07-26T04:34:53.252Z,75.47
2022-07-26T04:37:43.081Z,75.86
2022-07-26T04:40:28.490Z,76.57
2022-07-26T04:43:15.524Z,77.62
2022-07-26T04:46:01.865Z,78.70
2022-07-26T04:48:47.397Z,79.32
2022-07-26T04:51:32.622Z,80.14
2022-07-26T04:54:22.811Z,80.43
2022-07-26T04:57:08.044Z,81.33
2022-07-26T05:00:09.906Z,82.05
2022-07-26T05:03:00.733Z,83.14
2022-07-26T05:05:46.230Z,84.32
2022-07-26T05:08:31.389Z,85.61
2022-07-26T05:11:16.765Z,86.62
2022-07-26T05:14:02.052Z,87.61
2022-07-26T05:16:47.705Z,89.25
2022-07-26T05:19:33.784Z,91.04
2022-07-26T05:22:19.182Z,92.23
2022-07-26T05:25:06.354Z,93.03
2022-07-26T05:27:51.810Z,93.92
2022-07-26T05:30:36.825Z,95.09
2022-07-26T05:33:22.081Z,95.82
2022-07-26T05:36:07.339Z,96.90
2022-07-26T05:38:52.397Z,97.40
2022-07-26T05:41:37.654Z,97.92
2022-07-26T05:44:24.552Z,98.59
2022-07-26T05:47:11.710Z,98.84
2022-07-26T05:49:57.039Z,98.85
2022-07-26T05:52:42.252Z,98.97
2022-07-26T05:55:27.514Z,99.59
2022-07-26T05:58:12.808Z,100.00
2022-07-26T06:00:58.010Z,100.00
2022-07-26T06:03:43.518Z,100.00
2022-07-26T06:06:28.603Z,100.00
2022-07-26T06:09:13.824Z,100.00
2022-07-26T06:11:59.553Z,100.00
2022-07-26T06:14:45.074Z,100.00
2022-07-26T06:17:30.548Z,100.00
2022-07-26T06:20:15.923Z,100.00
2022-07-26T06:23:01.127Z,100.00
2022-07-26T06:25:46.495Z,100.00
2022-07-26T06:28:31.850Z,100.00
2022-07-26T06:31:20.538Z,100.00
2022-07-26T06:34:06.263Z,100.00
2022-07-26T06:36:55.492Z,100.00
2022-07-26T06:39:41.255Z,100.00
2022-07-26T06:42:26.524Z,100.00
2022-07-26T06:45:11.690Z,100.00
2022-07-26T06:47:57.092Z,100.00
2022-07-26T06:50:42.394Z,100.00
2022-07-26T06:53:27.666Z,100.00
2022-07-26T06:56:14.861Z,100.00
2022-07-26T06:59:00.079Z,99.65
2022-07-26T07:01:58.775Z,99.27
2022-07-26T07:04:45.026Z,98.56
2022-07-26T07:07:30.571Z,97.92
2022-07-26T07:10:19.271Z,97.63
2022-07-26T07:13:08.192Z,97.37
2022-07-26T07:15:53.739Z,96.51
2022-07-26T07:18:39.734Z,97.05
2022-07-26T07:21:25.187Z,97.15
2022-07-26T07:24:10.472Z,97.63
2022-07-26T07:26:56.210Z,97.46
2022-07-26T07:29:43.198Z,97.76
2022-07-26T07:32:28.850Z,98.19
2022-07-26T07:35:14.067Z,97.92
2022-07-26T07:37:59.249Z,98.74
2022-07-26T07:40:44.473Z,99.29
2022-07-26T07:43:29.533Z,99.16
2022-07-26T07:46:14.963Z,99.18
2022-07-26T07:49:00.452Z,98.86
2022-07-26T07:51:45.697Z,99.01
2022-07-26T07:54:31.115Z,97.38
2022-07-26T07:57:17.412Z,96.81
2022-07-26T08:00:05.565Z,95.81
2022-07-26T08:02:52.922Z,96.36
2022-07-26T08:05:40.552Z,96.14
2022-07-26T08:08:26.124Z,96.66
2022-07-26T08:11:12.774Z,97.23
2022-07-26T08:13:57.741Z,96.30
2022-07-26T08:16:44.645Z,96.85
2022-07-26T08:19:40.800Z,96.02
2022-07-26T08:22:27.553Z,96.70
2022-07-26T08:25:12.891Z,96.65
2022-07-26T08:28:03.533Z,97.14
2022-07-26T08:30:49.271Z,93.63
2022-07-26T08:33:34.287Z,93.11
2022-07-26T08:36:19.534Z,93.70
2022-07-26T08:39:05.170Z,93.95
2022-07-26T08:41:50.786Z,92.71
2022-07-26T08:44:36.226Z,91.65
2022-07-26T08:47:36.256Z,90.38
2022-07-26T08:50:24.825Z,90.21
2022-07-26T08:53:11.991Z,89.24
2022-07-26T08:56:06.910Z,88.90
2022-07-26T08:58:52.484Z,90.23
2022-07-26T09:01:53.901Z,90.56
2022-07-26T09:04:45.145Z,89.68
2022-07-26T09:07:33.782Z,87.33
2022-07-26T09:10:19.121Z,86.25
2022-07-26T09:13:04.433Z,85.31
2022-07-26T09:16:09.128Z,85.20
2022-07-26T09:18:55.834Z,85.59
2022-07-26T09:21:41.161Z,84.44
2022-07-26T09:24:37.103Z,84.62
2022-07-26T09:27:25.245Z,84.47
2022-07-26T09:30:13.717Z,84.35
2022-07-26T09:33:06.219Z,83.27
2022-07-26T09:36:21.619Z,81.48
2022-07-26T09:39:06.895Z,80.61
2022-07-26T09:42:17.519Z,78.15
2022-07-26T09:44:58.612Z,74.95
2022-07-26T09:47:43.706Z,73.36
2022-07-26T09:50:31.585Z,72.91
2022-07-26T09:53:16.549Z,74.31
2022-07-26T09:56:01.834Z,76.65
2022-07-26T09:58:47.764Z,78.53
2022-07-26T10:01:33.134Z,79.62
2022-07-26T10:04:19.381Z,78.78
2022-07-26T10:07:04.795Z,79.06
2022-07-26T10:09:59.290Z,80.04
2022-07-26T10:12:46.756Z,79.71
2022-07-26T10:15:44.313Z,80.21
2022-07-26T10:18:39.061Z,80.19
2022-07-26T10:21:32.094Z,79.31
2022-07-26T10:24:26.791Z,78.15
2022-07-26T10:27:37.887Z,76.85
2022-07-26T10:30:28.859Z,77.18
2022-07-26T10:33:23.007Z,76.33
2022-07-26T10:36:22.841Z,74.55
2022-07-26T10:39:16.271Z,74.75
2022-07-26T10:42:03.195Z,74.36
2022-07-26T10:44:49.295Z,74.12
2022-07-26T10:47:35.534Z,73.72
2022-07-26T10:50:32.543Z,72.97
2022-07-26T10:53:23.577Z,72.23
2022-07-26T10:56:08.648Z,71.80
2022-07-26T10:58:53.966Z,69.79
2022-07-26T11:01:42.353Z,69.83
2022-07-26T11:04:27.657Z,69.62
2022-07-26T11:07:13.288Z,69.62
2022-07-26T11:09:59.658Z,70.97
2022-07-26T11:12:44.902Z,71.13
2022-07-26T11:15:30.589Z,71.17
2022-07-26T11:18:27.835Z,70.83
2022-07-26T11:21:15.717Z,70.68
2022-07-26T11:24:02.884Z,69.79
2022-07-26T11:26:48.408Z,68.67
2022-07-26T11:29:38.666Z,68.62
2022-07-26T11:32:26.320Z,68.41
2022-07-26T11:35:11.333Z,68.56
2022-07-26T11:38:09.214Z,67.00
2022-07-26T11:40:56.951Z,65.69
2022-07-26T11:43:42.638Z,65.98
2022-07-26T11:46:40.194Z,65.23
2022-07-26T11:52:36.439Z,62.93
2022-07-26T11:55:30.202Z,62.59
2022-07-26T11:58:15.429Z,62.83
2022-07-26T12:01:00.494Z,62.26
2022-07-26T12:03:48.937Z,62.21
2022-07-26T12:06:38.581Z,61.03
2022-07-26T12:09:34.234Z,62.07
2022-07-26T12:12:31.723Z,61.92
2022-07-26T12:15:16.680Z,62.52
2022-07-26T12:18:02.139Z,61.85
2022-07-26T12:21:04.939Z,62.06
2022-07-26T12:23:53.072Z,61.86
2022-07-26T12:26:38.699Z,60.61
2022-07-26T12:29:36.303Z,60.62
2022-07-26T12:32:32.943Z,59.62
2022-07-26T12:35:27.836Z,59.95
2022-07-26T12:38:12.741Z,59.54
2022-07-26T12:40:57.766Z,60.41
2022-07-26T12:43:43.001Z,59.76
2022-07-26T12:46:35.535Z,60.39
2022-07-26T12:49:21.109Z,59.88
2022-07-26T12:52:06.825Z,59.31
2022-07-26T12:54:53.375Z,59.41
2022-07-26T12:57:38.467Z,59.15
2022-07-26T13:00:31.483Z,58.20
2022-07-26T13:03:16.716Z,58.26
2022-07-26T13:06:03.315Z,58.33
2022-07-26T13:08:49.158Z,59.09
2022-07-26T13:11:34.255Z,58.43
2022-07-26T13:14:19.576Z,57.96
2022-07-26T13:17:07.067Z,58.12
2022-07-26T13:19:52.034Z,58.26
2022-07-26T13:22:37.241Z,57.87
2022-07-26T13:25:22.477Z,55.93
2022-07-26T13:28:11.253Z,54.17
2022-07-26T13:30:56.681Z,54.92
2022-07-26T13:33:42.394Z,54.10
2022-07-26T13:36:28.206Z,54.25
2022-07-26T13:39:13.279Z,55.09
2022-07-26T13:41:59.667Z,55.40
2022-07-26T13:44:45.035Z,55.30
2022-07-26T13:47:30.245Z,55.65
2022-07-26T13:50:15.642Z,55.16
2022-07-26T13:53:01.071Z,55.84
2022-07-26T13:55:46.194Z,56.36
2022-07-26T13:58:32.533Z,56.25
2022-07-26T14:01:17.940Z,56.73
2022-07-26T14:04:04.586Z,56.27
2022-07-26T14:06:50.334Z,56.92
2022-07-26T14:09:35.539Z,57.40
2022-07-26T14:12:20.975Z,56.64
2022-07-26T14:15:13.753Z,58.16
2022-07-26T14:18:02.396Z,59.98
2022-07-26T14:20:47.656Z,60.66
2022-07-26T14:23:32.735Z,60.42
2022-07-26T14:26:18.638Z,60.35
2022-07-26T14:29:03.943Z,59.03
2022-07-26T14:31:49.064Z,58.40
2022-07-26T14:34:34.313Z,56.54
2022-07-26T14:37:43.230Z,54.18
2022-07-26T14:40:24.643Z,53.90
2022-07-26T14:43:10.069Z,52.78
2022-07-26T14:45:55.514Z,52.13
2022-07-26T14:48:54.081Z,52.86
2022-07-26T14:51:39.966Z,52.27
2022-07-26T14:54:25.156Z,52.86
2022-07-26T14:57:10.418Z,51.61
2022-07-26T14:59:55.972Z,52.07
2022-07-26T15:02:43.085Z,51.92
2022-07-26T15:05:28.753Z,51.46
2022-07-26T15:08:13.738Z,51.34
2022-07-26T15:10:59.134Z,51.43
2022-07-26T15:13:44.734Z,51.73
2022-07-26T15:16:32.173Z,51.40
2022-07-26T15:19:19.948Z,50.86
2022-07-26T15:22:09.463Z,49.85
2022-07-26T15:24:54.475Z,49.69
2022-07-26T15:27:40.131Z,48.98
2022-07-26T15:30:25.642Z,48.67
2022-07-26T15:33:11.890Z,48.42
2022-07-26T15:35:57.242Z,48.26
2022-07-26T15:38:45.173Z,48.57
2022-07-26T15:41:30.399Z,48.59
2022-07-26T15:44:17.519Z,48.94
2022-07-26T15:47:02.482Z,48.52
2022-07-26T15:49:49.066Z,48.16
2022-07-26T15:52:37.395Z,48.62
2022-07-26T15:55:22.731Z,48.23
2022-07-26T15:58:07.883Z,47.53
2022-07-26T16:00:53.132Z,46.82
2022-07-26T16:03:38.969Z,45.39
2022-07-26T16:06:24.565Z,45.03
2022-07-26T16:09:19.153Z,44.32
2022-07-26T16:12:06.316Z,45.21
2022-07-26T16:14:51.746Z,45.67
2022-07-26T16:17:36.733Z,44.07
2022-07-26T16:20:22.186Z,44.16
2022-07-26T16:23:07.213Z,44.70
2022-07-26T16:25:52.602Z,45.28
2022-07-26T16:28:37.721Z,45.56
2022-07-26T16:31:23.045Z,46.39
2022-07-26T16:34:09.368Z,46.72
2022-07-26T16:36:54.718Z,46.60
2022-07-26T16:39:40.027Z,46.37
2022-07-26T16:42:25.382Z,46.14
2022-07-26T16:45:11.063Z,46.70
2022-07-26T16:47:59.888Z,46.73
2022-07-26T16:50:45.105Z,45.87
2022-07-26T16:53:30.632Z,45.69
2022-07-26T16:56:15.728Z,45.98
2022-07-26T16:59:01.265Z,47.03
2022-07-26T17:01:46.354Z,47.08
2022-07-26T17:04:31.565Z,47.88
2022-07-26T17:07:25.783Z,48.13
2022-07-26T17:10:11.505Z,48.12
2022-07-26T17:12:56.883Z,48.92
2022-07-26T17:15:42.186Z,48.64
2022-07-26T17:18:27.406Z,49.02
2022-07-26T17:21:12.722Z,50.76
2022-07-26T17:24:00.516Z,52.41
2022-07-26T17:26:47.686Z,53.12
2022-07-26T17:29:33.020Z,53.37
2022-07-26T17:32:18.721Z,53.76
2022-07-26T17:35:05.685Z,54.05
2022-07-26T17:37:55.388Z,53.88
2022-07-26T17:40:41.467Z,54.15
2022-07-26T17:43:36.458Z,55.18
2022-07-26T17:46:22.549Z,55.09
2022-07-26T17:49:08.014Z,55.05
2022-07-26T17:51:57.273Z,56.73
2022-07-26T17:54:42.244Z,58.11
2022-07-26T17:57:27.763Z,59.50
2022-07-26T18:00:13.607Z,60.07
2022-07-26T18:02:58.957Z,61.07
2022-07-26T18:05:44.402Z,61.26
2022-07-26T18:08:30.009Z,62.20
2022-07-26T18:11:14.935Z,62.57
2022-07-26T18:14:00.286Z,63.02
2022-07-26T18:16:48.249Z,63.34
2022-07-26T18:19:39.873Z,64.03
2022-07-26T18:22:25.386Z,64.33
2022-07-26T18:25:10.781Z,64.79
2022-07-26T18:27:56.066Z,65.60
2022-07-26T18:30:41.359Z,65.95
2022-07-26T18:33:26.752Z,66.22
2022-07-26T18:36:11.879Z,66.34
2022-07-26T18:38:57.201Z,66.11
2022-07-26T18:41:42.230Z,66.46
2022-07-26T18:44:27.363Z,66.10
2022-07-26T18:47:12.565Z,66.52
2022-07-26T18:49:57.884Z,66.39
2022-07-26T18:52:45.545Z,66.43
2022-07-26T18:55:30.504Z,66.31
2022-07-26T18:58:15.711Z,66.76
2022-07-26T19:01:00.956Z,66.68
2022-07-26T19:03:46.308Z,66.92
2022-07-26T19:06:31.352Z,67.16
2022-07-26T19:09:16.682Z,67.26
2022-07-26T19:12:02.085Z,66.96
2022-07-26T19:14:47.218Z,67.22
2022-07-26T19:17:33.631Z,67.68
2022-07-26T19:20:18.673Z,68.32
2022-07-26T19:23:04.811Z,68.62
2022-07-26T19:25:50.162Z,68.71
2022-07-26T19:28:35.732Z,68.53
2022-07-26T19:31:21.651Z,68.80
2022-07-26T19:34:07.059Z,69.14
2022-07-26T19:36:52.966Z,69.03
2022-07-26T19:39:38.216Z,69.31
2022-07-26T19:42:23.331Z,69.10
2022-07-26T19:45:09.582Z,69.35
2022-07-26T19:47:55.212Z,69.29
2022-07-26T19:50:40.671Z,69.01
2022-07-26T19:53:25.973Z,69.18
2022-07-26T19:56:11.131Z,69.80
2022-07-26T19:58:57.648Z,70.30
2022-07-26T20:01:42.918Z,69.81
2022-07-26T20:04:28.337Z,70.39
2022-07-26T20:07:19.328Z,70.79
2022-07-26T20:10:05.762Z,70.66
2022-07-26T20:12:50.884Z,71.08
2022-07-26T20:15:36.331Z,72.14
2022-07-26T20:18:24.748Z,72.48
2022-07-26T20:21:09.679Z,73.49
2022-07-26T20:23:55.040Z,74.73
2022-07-26T20:26:40.399Z,76.91
2022-07-26T20:29:25.886Z,78.98
2022-07-26T20:32:11.157Z,80.64
2022-07-26T20:34:56.434Z,83.48
2022-07-26T20:37:43.074Z,86.03
2022-07-26T20:40:28.848Z,87.72
2022-07-26T20:43:13.965Z,88.90
2022-07-26T20:45:59.927Z,89.95
2022-07-26T20:48:45.367Z,90.54
2022-07-26T20:51:30.804Z,91.93
2022-07-26T20:54:16.091Z,92.98
2022-07-26T20:57:04.263Z,93.95
2022-07-26T20:59:49.850Z,94.82
2022-07-26T21:02:35.103Z,95.60
2022-07-26T21:05:20.632Z,96.48
2022-07-26T21:08:05.804Z,96.65
2022-07-26T21:10:50.972Z,96.64
2022-07-26T21:13:36.609Z,97.09
2022-07-26T21:16:21.566Z,97.17
2022-07-26T21:19:06.934Z,97.92
2022-07-26T21:21:54.592Z,98.37
2022-07-26T21:24:39.621Z,98.58
2022-07-26T21:27:24.965Z,98.01
2022-07-26T21:30:10.614Z,98.14
2022-07-26T21:32:55.699Z,97.90
2022-07-26T21:35:41.128Z,98.60
2022-07-26T21:38:27.777Z,99.14
2022-07-26T21:41:13.668Z,99.63
2022-07-26T21:43:58.843Z,100.00
2022-07-26T21:46:44.081Z,99.67
2022-07-26T21:49:29.492Z,98.86
2022-07-26T21:52:14.840Z,99.01
2022-07-26T21:55:00.097Z,99.28
2022-07-26T21:57:45.452Z,100.00
2022-07-26T22:00:30.878Z,100.00
2022-07-26T22:03:16.143Z,100.00
2022-07-26T22:06:01.523Z,100.00
2022-07-26T22:08:46.781Z,100.00
2022-07-26T22:11:32.118Z,100.00
2022-07-26T22:14:17.601Z,100.00
2022-07-26T22:17:02.748Z,100.00
2022-07-26T22:19:48.099Z,100.00
2022-07-26T22:22:34.700Z,99.03
2022-07-26T22:25:19.734Z,97.13
2022-07-26T22:28:06.611Z,97.23
2022-07-26T22:30:51.784Z,96.49
2022-07-26T22:33:37.205Z,96.18
2022-07-26T22:36:22.477Z,96.44
2022-07-26T22:39:09.123Z,96.60
2022-07-26T22:42:14.157Z,96.49
2022-07-26T22:44:59.383Z,96.56
2022-07-26T22:47:55.730Z,96.86
2022-07-26T22:50:41.259Z,96.87
2022-07-26T22:53:26.701Z,96.73
2022-07-26T22:56:11.853Z,96.27
2022-07-26T22:59:04.895Z,96.96
2022-07-26T23:01:49.896Z,97.13
2022-07-26T23:04:35.406Z,97.39
2022-07-26T23:07:20.550Z,97.79
2022-07-26T23:10:08.877Z,97.97
2022-07-26T23:12:55.274Z,98.08
2022-07-26T23:15:40.420Z,98.37
2022-07-26T23:18:25.715Z,98.41
2022-07-26T23:21:10.917Z,98.67
2022-07-26T23:23:56.428Z,98.82
2022-07-26T23:26:41.393Z,98.51
2022-07-26T23:29:26.527Z,97.96
2022-07-26T23:32:11.966Z,98.23
2022-07-26T23:34:57.132Z,98.81
2022-07-26T23:37:42.408Z,99.15
2022-07-26T23:40:27.625Z,98.93
2022-07-26T23:43:12.833Z,98.44
2022-07-26T23:45:58.143Z,98.69
2022-07-26T23:48:43.422Z,98.45
2022-07-26T23:51:28.785Z,97.99
2022-07-26T23:54:14.137Z,98.51
2022-07-26T23:56:59.536Z,99.12
2022-07-26T23:59:45.081Z,99.59
